sensor_id;sensor_type;location;lat;lon;timestamp;P1;durP1;ratioP1;P2;durP2;ratioP2
3831;SDS011;12460;42.662;23.288;2023-02-26T00:02:00;11.07;;;5.93;;
3831;SDS011;12460;42.662;23.288;2023-02-26T00:32:21;9.90;;;6.00;;
3831;SDS011;12460;42.662;23.288;2023-02-26T00:47:38;11.70;;;5.90;;
3831;SDS011;12460;42.662;23.288;2023-02-26T01:03:00;13.73;;;6.00;;
3831;SDS011;12460;42.662;23.288;2023-02-26T01:48:53;13.53;;;6.40;;
3831;SDS011;12460;42.662;23.288;2023-02-26T02:03:59;12.00;;;5.10;;
3831;SDS011;12460;42.662;23.288;2023-02-26T02:19:10;9.63;;;4.63;;
3831;SDS011;12460;42.662;23.288;2023-02-26T02:49:54;9.27;;;4.47;;
3831;SDS011;12460;42.662;23.288;2023-02-26T03:05:04;10.70;;;4.87;;
3831;SDS011;12460;42.662;23.288;2023-02-26T03:20:15;8.30;;;3.93;;
3831;SDS011;12460;42.662;23.288;2023-02-26T03:50:52;10.90;;;4.80;;
3831;SDS011;12460;42.662;23.288;2023-02-26T04:06:20;9.03;;;4.87;;
3831;SDS011;12460;42.662;23.288;2023-02-26T04:21:26;12.07;;;5.13;;
3831;SDS011;12460;42.662;23.288;2023-02-26T04:36:31;7.93;;;4.70;;
3831;SDS011;12460;42.662;23.288;2023-02-26T04:51:36;12.33;;;5.00;;
3831;SDS011;12460;42.662;23.288;2023-02-26T05:06:43;10.83;;;5.20;;
3831;SDS011;12460;42.662;23.288;2023-02-26T05:21:48;8.17;;;4.40;;
3831;SDS011;12460;42.662;23.288;2023-02-26T05:36:54;15.27;;;4.93;;
3831;SDS011;12460;42.662;23.288;2023-02-26T05:51:59;8.70;;;4.10;;
3831;SDS011;12460;42.662;23.288;2023-02-26T06:07:05;16.00;;;4.67;;
3831;SDS011;12460;42.662;23.288;2023-02-26T06:22:10;17.30;;;4.17;;
3831;SDS011;12460;42.662;23.288;2023-02-26T06:37:14;14.67;;;5.27;;
3831;SDS011;12460;42.662;23.288;2023-02-26T06:52:19;12.27;;;4.70;;
3831;SDS011;12460;42.662;23.288;2023-02-26T07:07:24;10.10;;;4.20;;
3831;SDS011;12460;42.662;23.288;2023-02-26T07:22:29;15.63;;;4.67;;
3831;SDS011;12460;42.662;23.288;2023-02-26T07:37:34;10.73;;;4.17;;
3831;SDS011;12460;42.662;23.288;2023-02-26T07:52:39;16.13;;;4.10;;
3831;SDS011;12460;42.662;23.288;2023-02-26T08:07:44;9.20;;;4.67;;
3831;SDS011;12460;42.662;23.288;2023-02-26T08:22:49;10.13;;;4.83;;
3831;SDS011;12460;42.662;23.288;2023-02-26T08:37:53;13.00;;;4.93;;
3831;SDS011;12460;42.662;23.288;2023-02-26T08:52:58;9.97;;;4.60;;
3831;SDS011;12460;42.662;23.288;2023-02-26T09:08:04;8.70;;;4.50;;
3831;SDS011;12460;42.662;23.288;2023-02-26T09:23:08;12.03;;;5.17;;
3831;SDS011;12460;42.662;23.288;2023-02-26T09:38:13;14.00;;;7.27;;
3831;SDS011;12460;42.662;23.288;2023-02-26T09:53:27;19.27;;;9.80;;
3831;SDS011;12460;42.662;23.288;2023-02-26T10:24:21;15.20;;;6.90;;
3831;SDS011;12460;42.662;23.288;2023-02-26T10:39:35;14.23;;;5.97;;
3831;SDS011;12460;42.662;23.288;2023-02-26T11:10:10;10.20;;;5.50;;
3831;SDS011;12460;42.662;23.288;2023-02-26T11:25:22;11.33;;;5.30;;
3831;SDS011;12460;42.662;23.288;2023-02-26T11:55:43;14.67;;;5.33;;
3831;SDS011;12460;42.662;23.288;2023-02-26T12:26:25;17.83;;;5.40;;
3831;SDS011;12460;42.662;23.288;2023-02-26T13:27:57;8.37;;;5.77;;
3831;SDS011;12460;42.662;23.288;2023-02-26T13:43:14;10.33;;;5.30;;
3831;SDS011;12460;42.662;23.288;2023-02-26T13:58:41;12.50;;;5.20;;
3831;SDS011;12460;42.662;23.288;2023-02-26T14:29:19;15.47;;;5.30;;
3831;SDS011;12460;42.662;23.288;2023-02-26T14:44:52;17.03;;;7.00;;
3831;SDS011;12460;42.662;23.288;2023-02-26T15:00:28;14.70;;;6.10;;
3831;SDS011;12460;42.662;23.288;2023-02-26T15:15:55;25.30;;;7.10;;
3831;SDS011;12460;42.662;23.288;2023-02-26T15:31:10;16.00;;;6.67;;
3831;SDS011;12460;42.662;23.288;2023-02-26T15:46:15;20.80;;;7.20;;
3831;SDS011;12460;42.662;23.288;2023-02-26T16:01:21;23.63;;;11.80;;
3831;SDS011;12460;42.662;23.288;2023-02-26T16:16:50;20.93;;;11.73;;
3831;SDS011;12460;42.662;23.288;2023-02-26T16:31:59;15.50;;;8.43;;
3831;SDS011;12460;42.662;23.288;2023-02-26T16:47:07;22.87;;;9.27;;
3831;SDS011;12460;42.662;23.288;2023-02-26T17:02:15;20.93;;;8.83;;
3831;SDS011;12460;42.662;23.288;2023-02-26T17:17:23;18.37;;;7.87;;
3831;SDS011;12460;42.662;23.288;2023-02-26T17:32:28;26.20;;;7.97;;
3831;SDS011;12460;42.662;23.288;2023-02-26T17:47:33;21.80;;;7.10;;
3831;SDS011;12460;42.662;23.288;2023-02-26T18:02:36;21.77;;;10.43;;
3831;SDS011;12460;42.662;23.288;2023-02-26T18:17:42;22.40;;;11.37;;
3831;SDS011;12460;42.662;23.288;2023-02-26T18:32:47;19.60;;;10.17;;
3831;SDS011;12460;42.662;23.288;2023-02-26T18:47:51;17.33;;;9.27;;
3831;SDS011;12460;42.662;23.288;2023-02-26T19:02:57;25.40;;;12.00;;
3831;SDS011;12460;42.662;23.288;2023-02-26T19:18:01;27.97;;;14.90;;
3831;SDS011;12460;42.662;23.288;2023-02-26T19:33:06;25.87;;;14.03;;
3831;SDS011;12460;42.662;23.288;2023-02-26T19:48:11;22.93;;;13.10;;
3831;SDS011;12460;42.662;23.288;2023-02-26T20:03:15;28.33;;;14.20;;
3831;SDS011;12460;42.662;23.288;2023-02-26T20:18:20;27.20;;;13.40;;
3831;SDS011;12460;42.662;23.288;2023-02-26T20:33:24;21.40;;;13.37;;
3831;SDS011;12460;42.662;23.288;2023-02-26T20:48:29;24.43;;;14.03;;
3831;SDS011;12460;42.662;23.288;2023-02-26T21:03:35;30.80;;;15.53;;
3831;SDS011;12460;42.662;23.288;2023-02-26T21:18:39;26.60;;;14.17;;
3831;SDS011;12460;42.662;23.288;2023-02-26T21:33:44;29.17;;;17.10;;
3831;SDS011;12460;42.662;23.288;2023-02-26T21:48:49;24.30;;;12.57;;
3831;SDS011;12460;42.662;23.288;2023-02-26T22:03:54;19.40;;;12.10;;
3831;SDS011;12460;42.662;23.288;2023-02-26T22:18:58;26.87;;;11.70;;
3831;SDS011;12460;42.662;23.288;2023-02-26T22:34:03;18.23;;;9.90;;
3831;SDS011;12460;42.662;23.288;2023-02-26T22:49:08;19.97;;;9.67;;
3831;SDS011;12460;42.662;23.288;2023-02-26T23:04:14;23.53;;;10.10;;
3831;SDS011;12460;42.662;23.288;2023-02-26T23:19:19;17.37;;;8.60;;
3831;SDS011;12460;42.662;23.288;2023-02-26T23:34:23;21.30;;;11.57;;
3831;SDS011;12460;42.662;23.288;2023-02-26T23:49:27;20.13;;;10.60;;
